sensor_id;sensor_type;location;lat;lon;timestamp;pressure;altitude;pressure_sealevel;temperature;humidity
69593;BME280;56796;50.122;14.468;2023-10-08T00:02:39;980.97;;;17.44;71.48
69593;BME280;56796;50.122;14.468;2023-10-08T00:22:07;980.8;;;17.37;71.75
69593;BME280;56796;50.122;14.468;2023-10-08T00:41:33;980.67;;;17.35;72.04
69593;BME280;56796;50.122;14.468;2023-10-08T01:01:00;980.42;;;17.71;70.99
69593;BME280;56796;50.122;14.468;2023-10-08T01:20:29;980.35;;;17.68;71.03
69593;BME280;56796;50.122;14.468;2023-10-08T01:39:55;980.27;;;17.69;71.22
69593;BME280;56796;50.122;14.468;2023-10-08T01:59:24;980.22;;;17.71;71.33
69593;BME280;56796;50.122;14.468;2023-10-08T02:18:51;980.21;;;17.64;71.89
69593;BME280;56796;50.122;14.468;2023-10-08T02:38:17;980.06;;;17.62;72.24
69593;BME280;56796;50.122;14.468;2023-10-08T02:57:45;979.87;;;17.45;73.14
69593;BME280;56796;50.122;14.468;2023-10-08T03:17:11;980.15;;;17.34;73.93
69593;BME280;56796;50.122;14.468;2023-10-08T03:36:38;980.34;;;17.39;74.36
69593;BME280;56796;50.122;14.468;2023-10-08T03:56:05;980.48;;;17.45;74.84
69593;BME280;56796;50.122;14.468;2023-10-08T04:15:33;980.47;;;17.46;75.36
69593;BME280;56796;50.122;14.468;2023-10-08T04:35:00;980.57;;;17.7;76.6
69593;BME280;56796;50.122;14.468;2023-10-08T04:54:29;981.94;;;14.66;84
69593;BME280;56796;50.122;14.468;2023-10-08T05:13:50;982.1;;;13.47;89.05
69593;BME280;56796;50.122;14.468;2023-10-08T05:33:07;982.45;;;12.94;93.21
69593;BME280;56796;50.122;14.468;2023-10-08T05:52:32;983.5;;;12.9;94.68
69593;BME280;56796;50.122;14.468;2023-10-08T06:11:58;984.4;;;11.44;91.96
69593;BME280;56796;50.122;14.468;2023-10-08T06:31:20;984.64;;;10.44;96.1
69593;BME280;56796;50.122;14.468;2023-10-08T06:50:44;985.18;;;10.44;97.52
69593;BME280;56796;50.122;14.468;2023-10-08T07:10:10;985.8;;;10.47;96.32
69593;BME280;56796;50.122;14.468;2023-10-08T07:29:36;986.11;;;10.49;96.59
69593;BME280;56796;50.122;14.468;2023-10-08T07:49:02;986.48;;;10.48;96.35
69593;BME280;56796;50.122;14.468;2023-10-08T08:08:29;986.67;;;10.52;97.52
69593;BME280;56796;50.122;14.468;2023-10-08T08:27:56;986.95;;;10.52;97.87
69593;BME280;56796;50.122;14.468;2023-10-08T08:47:22;987.29;;;10.38;94.67
69593;BME280;56796;50.122;14.468;2023-10-08T09:06:49;987.69;;;10.56;93.61
69593;BME280;56796;50.122;14.468;2023-10-08T09:26:16;987.95;;;10.67;93.42
69593;BME280;56796;50.122;14.468;2023-10-08T09:45:43;988.07;;;10.9;92.59
69593;BME280;56796;50.122;14.468;2023-10-08T10:05:10;988.09;;;11.28;91.49
69593;BME280;56796;50.122;14.468;2023-10-08T10:24:40;988.3;;;11.65;90.61
69593;BME280;56796;50.122;14.468;2023-10-08T10:44:03;988.63;;;11.9;89.16
69593;BME280;56796;50.122;14.468;2023-10-08T11:03:31;988.68;;;12.3;86.51
69593;BME280;56796;50.122;14.468;2023-10-08T11:22:59;988.59;;;12.71;83.68
69593;BME280;56796;50.122;14.468;2023-10-08T11:42:27;988.6;;;13.18;79.83
69593;BME280;56796;50.122;14.468;2023-10-08T12:01:55;988.58;;;13.31;78.02
69593;BME280;56796;50.122;14.468;2023-10-08T12:21:26;988.68;;;14.76;73.63
69593;BME280;56796;50.122;14.468;2023-10-08T12:40:55;988.65;;;14.22;72.08
69593;BME280;56796;50.122;14.468;2023-10-08T13:00:24;988.5;;;15.62;69.26
69593;BME280;56796;50.122;14.468;2023-10-08T13:20:03;988.64;;;17.07;61.98
69593;BME280;56796;50.122;14.468;2023-10-08T13:39:29;988.52;;;15.45;65.6
69593;BME280;56796;50.122;14.468;2023-10-08T13:58:48;988.57;;;13.62;71.25
69593;BME280;56796;50.122;14.468;2023-10-08T14:18:10;988.51;;;13.94;70.89
69593;BME280;56796;50.122;14.468;2023-10-08T14:37:34;988.37;;;14.35;70.19
69593;BME280;56796;50.122;14.468;2023-10-08T14:57:05;988.56;;;15.41;64.69
69593;BME280;56796;50.122;14.468;2023-10-08T15:16:33;988.51;;;15.47;63.87
69593;BME280;56796;50.122;14.468;2023-10-08T15:35:58;988.62;;;13.96;67.24
69593;BME280;56796;50.122;14.468;2023-10-08T15:55:23;988.77;;;12.71;71.3
69593;BME280;56796;50.122;14.468;2023-10-08T16:14:40;988.77;;;12.29;72.87
69593;BME280;56796;50.122;14.468;2023-10-08T16:34:05;989.07;;;11.89;74.92
69593;BME280;56796;50.122;14.468;2023-10-08T16:53:30;989.1;;;11.7;76.46
69593;BME280;56796;50.122;14.468;2023-10-08T17:12:56;989.34;;;11.33;78.09
69593;BME280;56796;50.122;14.468;2023-10-08T17:32:22;989.53;;;11.02;80.42
69593;BME280;56796;50.122;14.468;2023-10-08T17:51:49;989.63;;;10.99;81.57
69593;BME280;56796;50.122;14.468;2023-10-08T18:11:16;989.65;;;11.42;80.57
69593;BME280;56796;50.122;14.468;2023-10-08T18:30:43;989.77;;;11.76;80.22
69593;BME280;56796;50.122;14.468;2023-10-08T18:50:10;989.41;;;11.19;81.61
69593;BME280;56796;50.122;14.468;2023-10-08T19:09:37;989.42;;;11.09;83.06
69593;BME280;56796;50.122;14.468;2023-10-08T19:29:03;989.08;;;10.99;84.39
69593;BME280;56796;50.122;14.468;2023-10-08T19:48:29;989.06;;;10.79;86.95
69593;BME280;56796;50.122;14.468;2023-10-08T20:07:59;989.25;;;10.84;87.69
69593;BME280;56796;50.122;14.468;2023-10-08T20:27:19;988.33;;;10.73;88.52
69593;BME280;56796;50.122;14.468;2023-10-08T20:46:46;988.57;;;10.67;88.86
69593;BME280;56796;50.122;14.468;2023-10-08T21:06:17;988.83;;;10.64;89.14
69593;BME280;56796;50.122;14.468;2023-10-08T21:25:38;988.99;;;10.71;89.79
69593;BME280;56796;50.122;14.468;2023-10-08T21:45:06;988.68;;;10.57;90.6
69593;BME280;56796;50.122;14.468;2023-10-08T22:04:32;988.32;;;10.55;91.12
69593;BME280;56796;50.122;14.468;2023-10-08T22:23:58;988.19;;;10.66;90.9
69593;BME280;56796;50.122;14.468;2023-10-08T22:43:26;987.98;;;10.53;90.59
69593;BME280;56796;50.122;14.468;2023-10-08T23:02:52;987.84;;;10.42;91.57
69593;BME280;56796;50.122;14.468;2023-10-08T23:22:19;987.69;;;10.39;92.36
69593;BME280;56796;50.122;14.468;2023-10-08T23:41:46;987.39;;;10.44;92.45
